RYR017 EGNT-EIDW
Flight info
| Callsign | RYR017 |
|---|---|
| Flight time | N/A |
| Altitude | 27000 |
| Route | GIRLI P18 GASKO P16 RIBEL/N0378F280 DCT GUNTU Z196 LELDO M145 BAGSO BAGSO4L |
| Aircraft | A320/M-SDE3FGHIRWY/LB1 |
Departure
| Time | N/A |
|---|---|
| Airport | Newcastle International Airport (EGNT) |
Arrival
| Time | 2026-05-03 20:58 |
|---|---|
| Airport | Dublin Airport (EIDW) |
| Time | Latitude | Longitude | Altitude | Speed | Heading |
|---|---|---|---|---|---|
| 2026-05-03 20:15 | 54.08712 | -2.17639 | 26994 ft | 370 kts | 223° |
| 2026-05-03 20:15 | 54.06854 | -2.20604 | 26994 ft | 370 kts | 223° |
| 2026-05-03 20:15 | 54.04975 | -2.23598 | 26994 ft | 369 kts | 223° |
| 2026-05-03 20:15 | 54.03096 | -2.26583 | 26994 ft | 370 kts | 223° |
| 2026-05-03 20:16 | 54.01266 | -2.29680 | 26988 ft | 370 kts | 230° |
| 2026-05-03 20:16 | 53.99646 | -2.33087 | 26987 ft | 370 kts | 231° |
| 2026-05-03 20:16 | 53.98056 | -2.36448 | 26990 ft | 369 kts | 231° |
| 2026-05-03 20:16 | 53.96440 | -2.39843 | 26987 ft | 370 kts | 230° |
| 2026-05-03 20:17 | 53.94821 | -2.43233 | 26996 ft | 370 kts | 230° |
| 2026-05-03 20:17 | 53.93191 | -2.46637 | 27001 ft | 369 kts | 230° |
| 2026-05-03 20:17 | 53.91570 | -2.50026 | 26997 ft | 369 kts | 230° |
| 2026-05-03 20:17 | 53.89970 | -2.53374 | 26998 ft | 369 kts | 230° |
| 2026-05-03 20:18 | 53.88347 | -2.56763 | 26996 ft | 369 kts | 230° |
| 2026-05-03 20:18 | 53.86731 | -2.60139 | 26997 ft | 369 kts | 230° |
| 2026-05-03 20:18 | 53.85111 | -2.63518 | 26994 ft | 369 kts | 230° |
| 2026-05-03 20:18 | 53.83488 | -2.66890 | 26984 ft | 370 kts | 230° |
| 2026-05-03 20:19 | 53.81858 | -2.70270 | 26983 ft | 370 kts | 230° |
| 2026-05-03 20:19 | 53.80240 | -2.73615 | 26977 ft | 371 kts | 230° |
| 2026-05-03 20:19 | 53.78601 | -2.76999 | 26975 ft | 371 kts | 230° |
| 2026-05-03 20:19 | 53.76963 | -2.80387 | 26977 ft | 372 kts | 230° |
| 2026-05-03 20:20 | 53.75327 | -2.83770 | 26979 ft | 372 kts | 230° |
| 2026-05-03 20:20 | 53.73687 | -2.87156 | 26977 ft | 372 kts | 230° |
| 2026-05-03 20:20 | 53.72046 | -2.90541 | 26980 ft | 372 kts | 230° |
| 2026-05-03 20:20 | 53.70405 | -2.93916 | 26981 ft | 372 kts | 230° |
| 2026-05-03 20:21 | 53.68781 | -2.97252 | 26981 ft | 372 kts | 230° |
| 2026-05-03 20:21 | 53.67134 | -3.00623 | 26984 ft | 372 kts | 230° |
| 2026-05-03 20:21 | 53.65481 | -3.04000 | 26985 ft | 372 kts | 230° |
| 2026-05-03 20:21 | 53.63833 | -3.07365 | 26986 ft | 372 kts | 230° |
| 2026-05-03 20:22 | 53.62241 | -3.10808 | 26980 ft | 372 kts | 236° |
| 2026-05-03 20:22 | 53.61064 | -3.14694 | 26985 ft | 374 kts | 249° |
| 2026-05-03 20:22 | 53.60426 | -3.18897 | 26977 ft | 375 kts | 261° |
| 2026-05-03 20:22 | 53.60338 | -3.23291 | 26972 ft | 377 kts | 274° |
| 2026-05-03 20:23 | 53.60772 | -3.27656 | 26966 ft | 378 kts | 281° |
| 2026-05-03 20:23 | 53.61319 | -3.31997 | 26966 ft | 379 kts | 281° |
| 2026-05-03 20:23 | 53.61855 | -3.36347 | 26965 ft | 379 kts | 280° |
| 2026-05-03 20:23 | 53.62385 | -3.40707 | 26968 ft | 380 kts | 280° |
| 2026-05-03 20:24 | 53.62906 | -3.45021 | 26969 ft | 380 kts | 280° |
| 2026-05-03 20:24 | 53.63434 | -3.49388 | 26972 ft | 380 kts | 280° |
| 2026-05-03 20:24 | 53.63962 | -3.53763 | 26976 ft | 380 kts | 280° |
| 2026-05-03 20:24 | 53.64490 | -3.58141 | 26978 ft | 380 kts | 280° |
| 2026-05-03 20:25 | 53.65013 | -3.62466 | 26984 ft | 381 kts | 281° |
| 2026-05-03 20:25 | 53.65584 | -3.66831 | 26986 ft | 381 kts | 282° |
| 2026-05-03 20:25 | 53.66206 | -3.71171 | 26984 ft | 381 kts | 283° |
| 2026-05-03 20:25 | 53.66859 | -3.75517 | 26982 ft | 382 kts | 283° |
| 2026-05-03 20:26 | 53.67518 | -3.79860 | 26980 ft | 382 kts | 283° |
| 2026-05-03 20:26 | 53.68173 | -3.84214 | 26982 ft | 382 kts | 283° |
| 2026-05-03 20:26 | 53.68815 | -3.88570 | 26983 ft | 382 kts | 283° |
| 2026-05-03 20:26 | 53.69438 | -3.92871 | 26985 ft | 382 kts | 283° |
| 2026-05-03 20:27 | 53.70059 | -3.97233 | 26987 ft | 382 kts | 283° |
| 2026-05-03 20:27 | 53.70676 | -4.01598 | 26988 ft | 382 kts | 283° |
| 2026-05-03 20:27 | 53.71294 | -4.05983 | 26989 ft | 382 kts | 283° |
| 2026-05-03 20:27 | 53.71730 | -4.10408 | 26989 ft | 381 kts | 274° |
| 2026-05-03 20:28 | 53.71899 | -4.14824 | 26992 ft | 381 kts | 273° |
| 2026-05-03 20:28 | 53.72068 | -4.19289 | 26989 ft | 381 kts | 274° |
| 2026-05-03 20:28 | 53.72236 | -4.23766 | 26985 ft | 382 kts | 274° |
| 2026-05-03 20:28 | 53.72401 | -4.28256 | 26984 ft | 382 kts | 274° |
| 2026-05-03 20:29 | 53.72567 | -4.32750 | 26981 ft | 382 kts | 274° |
| 2026-05-03 20:29 | 53.72729 | -4.37188 | 26982 ft | 383 kts | 274° |
| 2026-05-03 20:29 | 53.72893 | -4.41681 | 26986 ft | 383 kts | 274° |
| 2026-05-03 20:29 | 53.73055 | -4.46170 | 26986 ft | 383 kts | 274° |
| 2026-05-03 20:30 | 53.73212 | -4.50627 | 26711 ft | 382 kts | 274° |
| 2026-05-03 20:30 | 53.73369 | -4.55117 | 26283 ft | 380 kts | 274° |
| 2026-05-03 20:30 | 53.73525 | -4.59571 | 25866 ft | 379 kts | 274° |
| 2026-05-03 20:30 | 53.73681 | -4.64001 | 25454 ft | 377 kts | 274° |
| 2026-05-03 20:31 | 53.73836 | -4.68420 | 25027 ft | 376 kts | 274° |
| 2026-05-03 20:31 | 53.73987 | -4.72834 | 24591 ft | 375 kts | 274° |
| 2026-05-03 20:31 | 53.74130 | -4.77167 | 24167 ft | 374 kts | 274° |
| 2026-05-03 20:31 | 53.74272 | -4.81552 | 23732 ft | 373 kts | 273° |
| 2026-05-03 20:32 | 53.74412 | -4.85924 | 23262 ft | 371 kts | 274° |
| 2026-05-03 20:32 | 53.74552 | -4.90266 | 22822 ft | 368 kts | 274° |
| 2026-05-03 20:32 | 53.74694 | -4.94555 | 22398 ft | 364 kts | 274° |
| 2026-05-03 20:32 | 53.74830 | -4.98772 | 21975 ft | 361 kts | 274° |
| 2026-05-03 20:33 | 53.74963 | -5.02994 | 21551 ft | 358 kts | 274° |
| 2026-05-03 20:33 | 53.75094 | -5.07183 | 21131 ft | 355 kts | 274° |
| 2026-05-03 20:33 | 53.75203 | -5.11338 | 20714 ft | 352 kts | 270° |
| 2026-05-03 20:33 | 53.74939 | -5.15448 | 20299 ft | 350 kts | 257° |
| 2026-05-03 20:34 | 53.74238 | -5.19329 | 19898 ft | 349 kts | 251° |
| 2026-05-03 20:34 | 53.73449 | -5.23197 | 19485 ft | 347 kts | 252° |
| 2026-05-03 20:34 | 53.72664 | -5.27061 | 19061 ft | 345 kts | 251° |
| 2026-05-03 20:34 | 53.72149 | -5.29602 | 18797 ft | 344 kts | 251° |
| 2026-05-03 20:35 | 53.71124 | -5.34661 | 18250 ft | 342 kts | 252° |
| 2026-05-03 20:35 | 53.70355 | -5.38453 | 17808 ft | 340 kts | 252° |
| 2026-05-03 20:35 | 53.69845 | -5.40954 | 17541 ft | 338 kts | 251° |
| 2026-05-03 20:35 | 53.69080 | -5.44692 | 17142 ft | 335 kts | 251° |
| 2026-05-03 20:36 | 53.68322 | -5.48394 | 16744 ft | 332 kts | 251° |
| 2026-05-03 20:36 | 53.67712 | -5.52137 | 16361 ft | 329 kts | 259° |
| 2026-05-03 20:36 | 53.67224 | -5.55905 | 15975 ft | 327 kts | 259° |
| 2026-05-03 20:36 | 53.66737 | -5.59645 | 15588 ft | 325 kts | 259° |
| 2026-05-03 20:37 | 53.66251 | -5.63359 | 15211 ft | 323 kts | 258° |
| 2026-05-03 20:37 | 53.65771 | -5.67013 | 14833 ft | 322 kts | 259° |
| 2026-05-03 20:37 | 53.65282 | -5.70708 | 14449 ft | 321 kts | 258° |
| 2026-05-03 20:37 | 53.64798 | -5.74374 | 14072 ft | 320 kts | 258° |
| 2026-05-03 20:38 | 53.64313 | -5.78029 | 13676 ft | 319 kts | 258° |
| 2026-05-03 20:38 | 53.63828 | -5.81676 | 13277 ft | 318 kts | 258° |
| 2026-05-03 20:38 | 53.63348 | -5.85297 | 12904 ft | 315 kts | 258° |
| 2026-05-03 20:38 | 53.62877 | -5.88850 | 12528 ft | 313 kts | 258° |
| 2026-05-03 20:39 | 53.62402 | -5.92424 | 12152 ft | 312 kts | 259° |
| 2026-05-03 20:39 | 53.61926 | -5.95981 | 11776 ft | 310 kts | 258° |
| 2026-05-03 20:39 | 53.61452 | -5.99514 | 11400 ft | 308 kts | 258° |
| 2026-05-03 20:39 | 53.60981 | -6.03030 | 11032 ft | 307 kts | 258° |
| 2026-05-03 20:40 | 53.60513 | -6.06498 | 10657 ft | 306 kts | 258° |
| 2026-05-03 20:40 | 53.60041 | -6.09983 | 10289 ft | 305 kts | 258° |
| 2026-05-03 20:40 | 53.59567 | -6.13465 | 9917 ft | 304 kts | 258° |
| 2026-05-03 20:40 | 53.59097 | -6.16906 | 9645 ft | 299 kts | 258° |
| 2026-05-03 20:41 | 53.58633 | -6.20316 | 9215 ft | 299 kts | 258° |
| 2026-05-03 20:41 | 53.58170 | -6.23721 | 8923 ft | 294 kts | 258° |
| 2026-05-03 20:41 | 53.57715 | -6.27062 | 8487 ft | 296 kts | 258° |
| 2026-05-03 20:41 | 53.57257 | -6.30405 | 8316 ft | 287 kts | 258° |
| 2026-05-03 20:42 | 53.56927 | -6.33657 | 8176 ft | 276 kts | 272° |
| 2026-05-03 20:42 | 53.57315 | -6.36721 | 8052 ft | 263 kts | 298° |
| 2026-05-03 20:42 | 53.58367 | -6.39089 | 7984 ft | 246 kts | 323° |
| 2026-05-03 20:42 | 53.59779 | -6.40581 | 7998 ft | 242 kts | 335° |
| 2026-05-03 20:43 | 53.61262 | -6.41932 | 7999 ft | 243 kts | 334° |
| 2026-05-03 20:43 | 53.62744 | -6.43290 | 7991 ft | 243 kts | 334° |
| 2026-05-03 20:43 | 53.64210 | -6.44739 | 7992 ft | 245 kts | 325° |
| 2026-05-03 20:43 | 53.65412 | -6.46785 | 7988 ft | 248 kts | 308° |
| 2026-05-03 20:44 | 53.66299 | -6.49255 | 7992 ft | 250 kts | 302° |
| 2026-05-03 20:44 | 53.67169 | -6.51784 | 7997 ft | 249 kts | 303° |
| 2026-05-03 20:44 | 53.68045 | -6.54315 | 7992 ft | 249 kts | 302° |
| 2026-05-03 20:44 | 53.68919 | -6.56843 | 7994 ft | 249 kts | 303° |
| 2026-05-03 20:45 | 53.69612 | -6.59530 | 7992 ft | 252 kts | 287° |
| 2026-05-03 20:45 | 53.69816 | -6.62438 | 7997 ft | 254 kts | 271° |
| 2026-05-03 20:45 | 53.69782 | -6.65429 | 7997 ft | 255 kts | 271° |
| 2026-05-03 20:45 | 53.69753 | -6.68425 | 7994 ft | 254 kts | 271° |
| 2026-05-03 20:46 | 53.69728 | -6.71400 | 7993 ft | 254 kts | 271° |
| 2026-05-03 20:46 | 53.69656 | -6.74375 | 7991 ft | 255 kts | 263° |
| 2026-05-03 20:46 | 53.69162 | -6.77259 | 7994 ft | 257 kts | 246° |
| 2026-05-03 20:46 | 53.68271 | -6.79827 | 7987 ft | 256 kts | 238° |
| 2026-05-03 20:47 | 53.67316 | -6.82385 | 7990 ft | 256 kts | 238° |
| 2026-05-03 20:47 | 53.66369 | -6.84930 | 7991 ft | 256 kts | 238° |
| 2026-05-03 20:47 | 53.65420 | -6.87480 | 7993 ft | 256 kts | 237° |
| 2026-05-03 20:47 | 53.64268 | -6.89774 | 7990 ft | 257 kts | 221° |
| 2026-05-03 20:48 | 53.62790 | -6.91444 | 7988 ft | 256 kts | 206° |
| 2026-05-03 20:48 | 53.61220 | -6.92788 | 7989 ft | 256 kts | 205° |
| 2026-05-03 20:48 | 53.59525 | -6.93618 | 7986 ft | 254 kts | 181° |
| 2026-05-03 20:48 | 53.57800 | -6.93167 | 7990 ft | 250 kts | 155° |
| 2026-05-03 20:49 | 53.56367 | -6.91557 | 7871 ft | 248 kts | 131° |
| 2026-05-03 20:49 | 53.55480 | -6.89104 | 7473 ft | 246 kts | 105° |
| 2026-05-03 20:49 | 53.55219 | -6.86297 | 7149 ft | 244 kts | 94° |
| 2026-05-03 20:49 | 53.54690 | -6.83650 | 6931 ft | 243 kts | 121° |
| 2026-05-03 20:50 | 53.53582 | -6.81489 | 6599 ft | 246 kts | 130° |
| 2026-05-03 20:50 | 53.52397 | -6.79394 | 6261 ft | 247 kts | 131° |
| 2026-05-03 20:50 | 53.51204 | -6.77314 | 5959 ft | 246 kts | 131° |
| 2026-05-03 20:50 | 53.50018 | -6.75257 | 5497 ft | 252 kts | 131° |
| 2026-05-03 20:51 | 53.48797 | -6.73143 | 5246 ft | 248 kts | 131° |
| 2026-05-03 20:51 | 53.47614 | -6.71099 | 5114 ft | 240 kts | 130° |
| 2026-05-03 20:51 | 53.46498 | -6.69099 | 5001 ft | 229 kts | 123° |
| 2026-05-03 20:51 | 53.45815 | -6.66781 | 4808 ft | 218 kts | 101° |
| 2026-05-03 20:52 | 53.45625 | -6.64296 | 4549 ft | 213 kts | 91° |
| 2026-05-03 20:52 | 53.45504 | -6.61850 | 4264 ft | 212 kts | 92° |
| 2026-05-03 20:52 | 53.45381 | -6.59449 | 3979 ft | 200 kts | 92° |
| 2026-05-03 20:52 | 53.45264 | -6.57198 | 3716 ft | 188 kts | 91° |
| 2026-05-03 20:53 | 53.45153 | -6.55076 | 3497 ft | 176 kts | 91° |
| 2026-05-03 20:53 | 53.45050 | -6.53113 | 3265 ft | 157 kts | 91° |
| 2026-05-03 20:53 | 53.44960 | -6.51406 | 3034 ft | 139 kts | 91° |
| 2026-05-03 20:53 | 53.44878 | -6.49830 | 2850 ft | 133 kts | 91° |
| 2026-05-03 20:54 | 53.44798 | -6.48298 | 2676 ft | 131 kts | 91° |
| 2026-05-03 20:54 | 53.44644 | -6.45300 | 2335 ft | 129 kts | 90° |
| 2026-05-03 20:54 | 53.44563 | -6.43802 | 2198 ft | 128 kts | 91° |
| 2026-05-03 20:55 | 53.44481 | -6.42305 | 2028 ft | 129 kts | 91° |
| 2026-05-03 20:55 | 53.44404 | -6.40809 | 1871 ft | 129 kts | 91° |
| 2026-05-03 20:55 | 53.44325 | -6.39310 | 1695 ft | 129 kts | 91° |
| 2026-05-03 20:55 | 53.44247 | -6.37819 | 1465 ft | 129 kts | 92° |
| 2026-05-03 20:56 | 53.44165 | -6.36320 | 1234 ft | 129 kts | 91° |
| 2026-05-03 20:56 | 53.44083 | -6.34844 | 1029 ft | 128 kts | 92° |
| 2026-05-03 20:56 | 53.44002 | -6.33358 | 860 ft | 128 kts | 91° |
| 2026-05-03 20:56 | 53.43920 | -6.31874 | 679 ft | 129 kts | 92° |
| 2026-05-03 20:57 | 53.43842 | -6.30386 | 521 ft | 126 kts | 91° |
| 2026-05-03 20:57 | 53.43766 | -6.28918 | 334 ft | 125 kts | 90° |
| 2026-05-03 20:57 | 53.43675 | -6.27486 | 229 ft | 114 kts | 92° |
| 2026-05-03 20:57 | 53.43622 | -6.26347 | 213 ft | 75 kts | 95° |
| 2026-05-03 20:58 | 53.43577 | -6.26037 | 216 ft | 11 kts | 159° |
| 2026-05-03 20:58 | 53.43533 | -6.26032 | 213 ft | 11 kts | 179° |
| 2026-05-03 20:58 | 53.43436 | -6.25996 | 210 ft | 16 kts | 161° |
| 2026-05-03 20:58 | 53.43354 | -6.25876 | 210 ft | 17 kts | 86° |
| 2026-05-03 20:59 | 53.43383 | -6.25688 | 215 ft | 18 kts | 121° |
| 2026-05-03 20:59 | 53.43269 | -6.25597 | 216 ft | 20 kts | 155° |
| 2026-05-03 20:59 | 53.43194 | -6.25451 | 211 ft | 10 kts | 71° |
| 2026-05-03 20:59 | 53.43138 | -6.25386 | 215 ft | 13 kts | 159° |
| 2026-05-03 21:00 | 53.43046 | -6.25317 | 214 ft | 16 kts | 155° |
| 2026-05-03 21:00 | 53.42973 | -6.25261 | 214 ft | 19 kts | 156° |
| 2026-05-03 21:00 | 53.42957 | -6.25086 | 211 ft | 11 kts | 94° |
| 2026-05-03 21:00 | 53.42950 | -6.24959 | 217 ft | 14 kts | 95° |
| 2026-05-03 21:01 | 53.42967 | -6.24863 | 212 ft | 8 kts | 19° |
| 2026-05-03 21:01 | 53.42988 | -6.24884 | 211 ft | 3 kts | 336° |
| 2026-05-03 21:01 | 53.43006 | -6.24878 | 211 ft | 0 kts | 6° |
| 2026-05-03 21:01 | 53.43007 | -6.24878 | 211 ft | 0 kts | 5° |